sensor_id;sensor_type;location;lat;lon;timestamp;pressure;altitude;pressure_sealevel;temperature;humidity
37878;BME280;23715;53.652;8.516;2023-07-08T00:00:39;102278.11;;;17.83;100.00
37878;BME280;23715;53.652;8.516;2023-07-08T00:05:40;102269.66;;;17.67;100.00
37878;BME280;23715;53.652;8.516;2023-07-08T00:10:40;102271.80;;;17.53;100.00
37878;BME280;23715;53.652;8.516;2023-07-08T00:15:40;102270.86;;;17.49;100.00
37878;BME280;23715;53.652;8.516;2023-07-08T00:20:46;102260.42;;;17.34;100.00
37878;BME280;23715;53.652;8.516;2023-07-08T00:25:47;102258.80;;;17.12;100.00
37878;BME280;23715;53.652;8.516;2023-07-08T00:30:48;102261.02;;;17.13;100.00
37878;BME280;23715;53.652;8.516;2023-07-08T00:35:54;102258.88;;;17.16;100.00
37878;BME280;23715;53.652;8.516;2023-07-08T00:41:06;102260.53;;;16.88;100.00
37878;BME280;23715;53.652;8.516;2023-07-08T00:51:30;102265.23;;;17.02;100.00
37878;BME280;23715;53.652;8.516;2023-07-08T00:56:31;102262.19;;;16.85;100.00
37878;BME280;23715;53.652;8.516;2023-07-08T01:01:34;102268.84;;;16.71;100.00
37878;BME280;23715;53.652;8.516;2023-07-08T01:06:37;102267.69;;;16.74;100.00
37878;BME280;23715;53.652;8.516;2023-07-08T01:11:40;102260.91;;;16.89;100.00
37878;BME280;23715;53.652;8.516;2023-07-08T01:16:41;102258.67;;;17.14;100.00
37878;BME280;23715;53.652;8.516;2023-07-08T01:26:53;102254.13;;;16.99;100.00
37878;BME280;23715;53.652;8.516;2023-07-08T01:31:56;102251.66;;;17.02;100.00
37878;BME280;23715;53.652;8.516;2023-07-08T01:37:00;102248.31;;;17.23;100.00
37878;BME280;23715;53.652;8.516;2023-07-08T01:42:01;102241.31;;;17.21;100.00
37878;BME280;23715;53.652;8.516;2023-07-08T01:47:05;102241.77;;;17.01;100.00
37878;BME280;23715;53.652;8.516;2023-07-08T01:52:05;102238.45;;;16.72;100.00
37878;BME280;23715;53.652;8.516;2023-07-08T01:57:06;102240.25;;;16.62;100.00
37878;BME280;23715;53.652;8.516;2023-07-08T02:02:07;102243.56;;;16.65;100.00
37878;BME280;23715;53.652;8.516;2023-07-08T02:07:07;102241.78;;;16.60;100.00
37878;BME280;23715;53.652;8.516;2023-07-08T02:12:08;102235.86;;;16.45;100.00
37878;BME280;23715;53.652;8.516;2023-07-08T02:17:10;102235.86;;;16.45;100.00
37878;BME280;23715;53.652;8.516;2023-07-08T02:22:10;102236.23;;;16.56;100.00
37878;BME280;23715;53.652;8.516;2023-07-08T02:27:11;102235.34;;;16.46;100.00
37878;BME280;23715;53.652;8.516;2023-07-08T02:32:11;102239.84;;;16.41;100.00
37878;BME280;23715;53.652;8.516;2023-07-08T02:37:12;102235.94;;;16.49;100.00
37878;BME280;23715;53.652;8.516;2023-07-08T02:42:12;102233.61;;;16.45;100.00
37878;BME280;23715;53.652;8.516;2023-07-08T02:47:12;102230.90;;;16.45;100.00
37878;BME280;23715;53.652;8.516;2023-07-08T02:52:13;102235.56;;;16.48;100.00
37878;BME280;23715;53.652;8.516;2023-07-08T02:57:12;102228.25;;;16.54;100.00
37878;BME280;23715;53.652;8.516;2023-07-08T03:02:12;102230.72;;;16.52;100.00
37878;BME280;23715;53.652;8.516;2023-07-08T03:07:15;102226.65;;;16.52;100.00
37878;BME280;23715;53.652;8.516;2023-07-08T03:12:16;102225.23;;;16.57;100.00
37878;BME280;23715;53.652;8.516;2023-07-08T03:17:16;102217.39;;;16.54;100.00
37878;BME280;23715;53.652;8.516;2023-07-08T03:22:18;102222.29;;;16.30;100.00
37878;BME280;23715;53.652;8.516;2023-07-08T03:27:18;102219.02;;;16.36;100.00
37878;BME280;23715;53.652;8.516;2023-07-08T03:32:21;102221.00;;;16.49;100.00
37878;BME280;23715;53.652;8.516;2023-07-08T03:37:23;102212.22;;;16.51;100.00
37878;BME280;23715;53.652;8.516;2023-07-08T03:42:23;102216.98;;;16.28;100.00
37878;BME280;23715;53.652;8.516;2023-07-08T03:47:24;102218.23;;;16.55;100.00
37878;BME280;23715;53.652;8.516;2023-07-08T03:52:24;102212.31;;;16.40;100.00
37878;BME280;23715;53.652;8.516;2023-07-08T03:57:25;102213.78;;;16.54;100.00
37878;BME280;23715;53.652;8.516;2023-07-08T04:02:25;102213.31;;;16.54;100.00
37878;BME280;23715;53.652;8.516;2023-07-08T04:07:27;102211.69;;;16.67;100.00
37878;BME280;23715;53.652;8.516;2023-07-08T04:12:28;102211.42;;;16.70;100.00
37878;BME280;23715;53.652;8.516;2023-07-08T04:17:28;102215.80;;;16.92;100.00
37878;BME280;23715;53.652;8.516;2023-07-08T04:22:30;102203.84;;;16.89;100.00
37878;BME280;23715;53.652;8.516;2023-07-08T04:27:33;102203.08;;;17.03;100.00
37878;BME280;23715;53.652;8.516;2023-07-08T04:32:33;102200.80;;;17.27;100.00
37878;BME280;23715;53.652;8.516;2023-07-08T04:37:35;102199.44;;;17.37;100.00
37878;BME280;23715;53.652;8.516;2023-07-08T04:42:36;102204.59;;;17.50;100.00
37878;BME280;23715;53.652;8.516;2023-07-08T04:47:41;102197.11;;;17.71;100.00
37878;BME280;23715;53.652;8.516;2023-07-08T04:52:41;102184.16;;;18.26;100.00
37878;BME280;23715;53.652;8.516;2023-07-08T04:57:41;102184.16;;;18.26;100.00
37878;BME280;23715;53.652;8.516;2023-07-08T05:02:41;102175.05;;;18.59;100.00
37878;BME280;23715;53.652;8.516;2023-07-08T05:07:41;102174.64;;;18.54;100.00
37878;BME280;23715;53.652;8.516;2023-07-08T05:12:44;102170.24;;;18.71;100.00
37878;BME280;23715;53.652;8.516;2023-07-08T05:17:45;102160.92;;;19.05;100.00
37878;BME280;23715;53.652;8.516;2023-07-08T05:22:45;102152.95;;;19.30;100.00
37878;BME280;23715;53.652;8.516;2023-07-08T05:27:46;102160.30;;;19.56;100.00
37878;BME280;23715;53.652;8.516;2023-07-08T05:32:46;102152.91;;;19.70;100.00
37878;BME280;23715;53.652;8.516;2023-07-08T05:37:47;102151.61;;;20.04;100.00
37878;BME280;23715;53.652;8.516;2023-07-08T05:42:47;102153.11;;;20.33;100.00
37878;BME280;23715;53.652;8.516;2023-07-08T05:47:50;102145.83;;;20.50;100.00
37878;BME280;23715;53.652;8.516;2023-07-08T05:52:50;102141.97;;;20.61;100.00
37878;BME280;23715;53.652;8.516;2023-07-08T05:57:51;102138.57;;;20.75;100.00
37878;BME280;23715;53.652;8.516;2023-07-08T06:02:51;102138.97;;;20.93;100.00
37878;BME280;23715;53.652;8.516;2023-07-08T06:07:51;102135.19;;;20.98;100.00
37878;BME280;23715;53.652;8.516;2023-07-08T06:12:51;102130.09;;;21.19;100.00
37878;BME280;23715;53.652;8.516;2023-07-08T06:17:53;102126.31;;;21.41;100.00
37878;BME280;23715;53.652;8.516;2023-07-08T06:22:55;102129.75;;;21.35;100.00
37878;BME280;23715;53.652;8.516;2023-07-08T06:27:55;102134.91;;;21.46;100.00
37878;BME280;23715;53.652;8.516;2023-07-08T06:32:55;102129.39;;;21.71;100.00
37878;BME280;23715;53.652;8.516;2023-07-08T06:37:55;102129.39;;;21.71;100.00
37878;BME280;23715;53.652;8.516;2023-07-08T06:42:56;102129.33;;;21.87;100.00
37878;BME280;23715;53.652;8.516;2023-07-08T06:47:58;102124.82;;;22.11;100.00
37878;BME280;23715;53.652;8.516;2023-07-08T06:52:58;102115.67;;;22.31;100.00
37878;BME280;23715;53.652;8.516;2023-07-08T06:57:58;102114.23;;;22.47;100.00
37878;BME280;23715;53.652;8.516;2023-07-08T07:02:59;102110.29;;;22.46;100.00
37878;BME280;23715;53.652;8.516;2023-07-08T07:07:59;102107.11;;;22.65;100.00
37878;BME280;23715;53.652;8.516;2023-07-08T07:13:05;102103.25;;;22.74;100.00
37878;BME280;23715;53.652;8.516;2023-07-08T07:18:01;102098.44;;;22.80;100.00
37878;BME280;23715;53.652;8.516;2023-07-08T07:23:02;102089.56;;;22.97;100.00
37878;BME280;23715;53.652;8.516;2023-07-08T07:28:02;102088.95;;;23.10;100.00
37878;BME280;23715;53.652;8.516;2023-07-08T07:33:04;102090.76;;;23.22;100.00
37878;BME280;23715;53.652;8.516;2023-07-08T07:38:03;102086.33;;;23.36;100.00
37878;BME280;23715;53.652;8.516;2023-07-08T07:43:03;102085.73;;;23.59;100.00
37878;BME280;23715;53.652;8.516;2023-07-08T07:48:04;102080.11;;;23.72;100.00
37878;BME280;23715;53.652;8.516;2023-07-08T07:53:06;102082.73;;;23.84;100.00
37878;BME280;23715;53.652;8.516;2023-07-08T07:58:07;102067.06;;;24.04;100.00
37878;BME280;23715;53.652;8.516;2023-07-08T08:03:09;102070.63;;;24.19;100.00
37878;BME280;23715;53.652;8.516;2023-07-08T08:08:09;102065.55;;;24.27;100.00
37878;BME280;23715;53.652;8.516;2023-07-08T08:13:10;102065.34;;;24.54;100.00
37878;BME280;23715;53.652;8.516;2023-07-08T08:18:11;102065.69;;;24.51;100.00
37878;BME280;23715;53.652;8.516;2023-07-08T08:23:11;102064.37;;;24.72;100.00
37878;BME280;23715;53.652;8.516;2023-07-08T08:28:11;102064.95;;;24.68;100.00
37878;BME280;23715;53.652;8.516;2023-07-08T08:33:12;102069.95;;;24.68;100.00
37878;BME280;23715;53.652;8.516;2023-07-08T08:38:13;102069.55;;;24.93;100.00
37878;BME280;23715;53.652;8.516;2023-07-08T08:43:22;102069.06;;;25.11;100.00
37878;BME280;23715;53.652;8.516;2023-07-08T08:48:25;102065.60;;;25.24;100.00
37878;BME280;23715;53.652;8.516;2023-07-08T08:53:29;102068.52;;;25.11;100.00
37878;BME280;23715;53.652;8.516;2023-07-08T08:58:50;102052.92;;;25.40;100.00
37878;BME280;23715;53.652;8.516;2023-07-08T09:04:10;102056.06;;;25.55;100.00
37878;BME280;23715;53.652;8.516;2023-07-08T09:09:17;102056.97;;;25.62;100.00
37878;BME280;23715;53.652;8.516;2023-07-08T09:14:24;102054.53;;;25.80;100.00
37878;BME280;23715;53.652;8.516;2023-07-08T09:19:29;102047.55;;;25.84;100.00
37878;BME280;23715;53.652;8.516;2023-07-08T09:24:44;102055.28;;;25.85;100.00
37878;BME280;23715;53.652;8.516;2023-07-08T09:29:46;102052.62;;;25.98;100.00
37878;BME280;23715;53.652;8.516;2023-07-08T09:34:51;102049.72;;;26.13;100.00
37878;BME280;23715;53.652;8.516;2023-07-08T09:39:55;102042.97;;;26.29;100.00
37878;BME280;23715;53.652;8.516;2023-07-08T09:44:58;102044.63;;;26.41;100.00
37878;BME280;23715;53.652;8.516;2023-07-08T09:50:01;102047.78;;;26.44;100.00
37878;BME280;23715;53.652;8.516;2023-07-08T09:55:03;102043.58;;;26.55;100.00
37878;BME280;23715;53.652;8.516;2023-07-08T10:00:09;102040.13;;;26.64;100.00
37878;BME280;23715;53.652;8.516;2023-07-08T10:05:33;102044.91;;;26.86;100.00
37878;BME280;23715;53.652;8.516;2023-07-08T10:10:22;102039.20;;;26.81;100.00
37878;BME280;23715;53.652;8.516;2023-07-08T10:15:46;102034.93;;;27.05;100.00
37878;BME280;23715;53.652;8.516;2023-07-08T10:20:28;102034.93;;;27.05;100.00
37878;BME280;23715;53.652;8.516;2023-07-08T10:31:31;102037.52;;;27.26;100.00
37878;BME280;23715;53.652;8.516;2023-07-08T10:36:48;102035.27;;;27.26;100.00
37878;BME280;23715;53.652;8.516;2023-07-08T10:47:32;102030.11;;;27.56;100.00
37878;BME280;23715;53.652;8.516;2023-07-08T10:52:52;102031.39;;;27.60;100.00
37878;BME280;23715;53.652;8.516;2023-07-08T11:13:24;102010.95;;;28.04;100.00
37878;BME280;23715;53.652;8.516;2023-07-08T11:18:33;102012.77;;;28.17;100.00
37878;BME280;23715;53.652;8.516;2023-07-08T11:28:48;101998.08;;;28.39;100.00
37878;BME280;23715;53.652;8.516;2023-07-08T11:33:51;102000.42;;;28.51;100.00
37878;BME280;23715;53.652;8.516;2023-07-08T11:38:56;101996.20;;;28.55;100.00
37878;BME280;23715;53.652;8.516;2023-07-08T11:43:59;101997.80;;;28.47;100.00
37878;BME280;23715;53.652;8.516;2023-07-08T11:49:12;101991.80;;;28.57;100.00
37878;BME280;23715;53.652;8.516;2023-07-08T11:54:36;101990.59;;;28.72;100.00
37878;BME280;23715;53.652;8.516;2023-07-08T11:59:26;101990.59;;;28.78;100.00
37878;BME280;23715;53.652;8.516;2023-07-08T12:09:45;101988.47;;;28.98;100.00
37878;BME280;23715;53.652;8.516;2023-07-08T12:14:44;101978.48;;;28.97;100.00
37878;BME280;23715;53.652;8.516;2023-07-08T12:19:44;101979.72;;;29.01;100.00
37878;BME280;23715;53.652;8.516;2023-07-08T12:24:45;101981.56;;;29.08;100.00
37878;BME280;23715;53.652;8.516;2023-07-08T12:29:45;101968.39;;;29.28;100.00
37878;BME280;23715;53.652;8.516;2023-07-08T12:34:46;101970.23;;;29.44;100.00
37878;BME280;23715;53.652;8.516;2023-07-08T12:39:57;101966.47;;;29.66;100.00
37878;BME280;23715;53.652;8.516;2023-07-08T12:45:01;101963.00;;;29.80;100.00
37878;BME280;23715;53.652;8.516;2023-07-08T12:50:01;101966.38;;;29.63;100.00
37878;BME280;23715;53.652;8.516;2023-07-08T12:55:02;101960.34;;;29.73;100.00
37878;BME280;23715;53.652;8.516;2023-07-08T13:00:03;101960.23;;;29.80;100.00
37878;BME280;23715;53.652;8.516;2023-07-08T13:05:05;101962.32;;;29.84;100.00
37878;BME280;23715;53.652;8.516;2023-07-08T13:10:07;101949.26;;;30.03;100.00
37878;BME280;23715;53.652;8.516;2023-07-08T13:15:15;101944.72;;;30.00;100.00
37878;BME280;23715;53.652;8.516;2023-07-08T13:20:15;101950.33;;;30.02;100.00
37878;BME280;23715;53.652;8.516;2023-07-08T13:25:17;101942.23;;;30.01;100.00
37878;BME280;23715;53.652;8.516;2023-07-08T13:30:20;101946.62;;;29.99;100.00
37878;BME280;23715;53.652;8.516;2023-07-08T13:35:36;101944.81;;;30.14;100.00
37878;BME280;23715;53.652;8.516;2023-07-08T13:40:36;101936.86;;;30.17;100.00
37878;BME280;23715;53.652;8.516;2023-07-08T13:45:37;101936.77;;;30.24;100.00
37878;BME280;23715;53.652;8.516;2023-07-08T13:50:45;101933.88;;;30.40;100.00
37878;BME280;23715;53.652;8.516;2023-07-08T13:55:40;101937.95;;;30.47;100.00
37878;BME280;23715;53.652;8.516;2023-07-08T14:00:41;101933.05;;;30.51;100.00
37878;BME280;23715;53.652;8.516;2023-07-08T14:05:43;101933.70;;;30.44;100.00
37878;BME280;23715;53.652;8.516;2023-07-08T14:10:43;101936.06;;;30.50;100.00
37878;BME280;23715;53.652;8.516;2023-07-08T14:15:44;101936.89;;;30.50;100.00
37878;BME280;23715;53.652;8.516;2023-07-08T14:20:45;101930.04;;;30.53;100.00
37878;BME280;23715;53.652;8.516;2023-07-08T14:25:45;101929.27;;;30.67;100.00
37878;BME280;23715;53.652;8.516;2023-07-08T23:42:07;102033.33;;;20.63;100.00
37878;BME280;23715;53.652;8.516;2023-07-08T23:47:15;102031.05;;;20.46;100.00
37878;BME280;23715;53.652;8.516;2023-07-08T23:52:13;102028.48;;;20.40;100.00
37878;BME280;23715;53.652;8.516;2023-07-08T23:57:18;102032.48;;;20.66;100.00
